sensor_id;sensor_type;location;lat;lon;timestamp;temperature;humidity
75164;HTU21D;63746;45.402;37.922;2023-02-26T00:00:13;10.12;68.50
75164;HTU21D;63746;45.402;37.922;2023-02-26T00:02:45;10.13;68.71
75164;HTU21D;63746;45.402;37.922;2023-02-26T00:05:13;10.16;68.54
75164;HTU21D;63746;45.402;37.922;2023-02-26T00:07:39;10.19;68.04
75164;HTU21D;63746;45.402;37.922;2023-02-26T00:10:08;10.24;68.10
75164;HTU21D;63746;45.402;37.922;2023-02-26T00:12:34;10.30;68.17
75164;HTU21D;63746;45.402;37.922;2023-02-26T00:15:00;10.36;66.82
75164;HTU21D;63746;45.402;37.922;2023-02-26T00:20:14;10.52;66.65
75164;HTU21D;63746;45.402;37.922;2023-02-26T00:22:43;10.65;67.46
75164;HTU21D;63746;45.402;37.922;2023-02-26T00:25:10;10.73;66.46
75164;HTU21D;63746;45.402;37.922;2023-02-26T00:27:37;10.81;66.11
75164;HTU21D;63746;45.402;37.922;2023-02-26T00:30:05;10.90;67.01
75164;HTU21D;63746;45.402;37.922;2023-02-26T00:32:32;10.97;65.28
75164;HTU21D;63746;45.402;37.922;2023-02-26T00:34:58;11.02;66.33
75164;HTU21D;63746;45.402;37.922;2023-02-26T00:42:50;11.18;65.56
75164;HTU21D;63746;45.402;37.922;2023-02-26T00:45:16;11.24;65.74
75164;HTU21D;63746;45.402;37.922;2023-02-26T00:51:18;11.30;61.81
75164;HTU21D;63746;45.402;37.922;2023-02-26T00:56:23;11.39;65.08
75164;HTU21D;63746;45.402;37.922;2023-02-26T00:58:48;11.43;66.88
75164;HTU21D;63746;45.402;37.922;2023-02-26T01:01:14;11.45;62.25
75164;HTU21D;63746;45.402;37.922;2023-02-26T01:03:41;11.48;59.52
75164;HTU21D;63746;45.402;37.922;2023-02-26T01:06:12;11.51;62.21
75164;HTU21D;63746;45.402;37.922;2023-02-26T01:08:53;11.52;63.98
75164;HTU21D;63746;45.402;37.922;2023-02-26T01:11:20;11.55;64.47
75164;HTU21D;63746;45.402;37.922;2023-02-26T01:13:46;11.55;62.85
75164;HTU21D;63746;45.402;37.922;2023-02-26T01:16:20;11.58;65.96
75164;HTU21D;63746;45.402;37.922;2023-02-26T01:18:55;11.58;66.01
75164;HTU21D;63746;45.402;37.922;2023-02-26T01:21:32;11.57;62.47
75164;HTU21D;63746;45.402;37.922;2023-02-26T01:24:01;11.59;65.97
75164;HTU21D;63746;45.402;37.922;2023-02-26T01:26:29;11.60;64.68
75164;HTU21D;63746;45.402;37.922;2023-02-26T01:28:55;11.61;66.40
75164;HTU21D;63746;45.402;37.922;2023-02-26T01:31:46;11.61;58.93
75164;HTU21D;63746;45.402;37.922;2023-02-26T01:34:34;11.61;62.14
75164;HTU21D;63746;45.402;37.922;2023-02-26T01:37:27;11.60;63.49
75164;HTU21D;63746;45.402;37.922;2023-02-26T01:40:25;11.62;61.79
75164;HTU21D;63746;45.402;37.922;2023-02-26T01:43:02;11.60;63.95
75164;HTU21D;63746;45.402;37.922;2023-02-26T01:45:34;11.58;59.70
75164;HTU21D;63746;45.402;37.922;2023-02-26T01:48:11;11.59;65.40
75164;HTU21D;63746;45.402;37.922;2023-02-26T01:50:43;11.57;63.89
75164;HTU21D;63746;45.402;37.922;2023-02-26T01:55:35;11.57;62.42
75164;HTU21D;63746;45.402;37.922;2023-02-26T01:58:01;11.56;66.08
75164;HTU21D;63746;45.402;37.922;2023-02-26T02:00:29;11.55;66.09
75164;HTU21D;63746;45.402;37.922;2023-02-26T02:02:56;11.54;66.33
75164;HTU21D;63746;45.402;37.922;2023-02-26T02:05:33;11.54;64.43
75164;HTU21D;63746;45.402;37.922;2023-02-26T02:08:00;11.54;66.03
75164;HTU21D;63746;45.402;37.922;2023-02-26T02:10:27;11.53;65.76
75164;HTU21D;63746;45.402;37.922;2023-02-26T02:18:28;11.51;65.20
75164;HTU21D;63746;45.402;37.922;2023-02-26T02:29:27;11.40;64.55
75164;HTU21D;63746;45.402;37.922;2023-02-26T02:32:12;11.37;64.80
75164;HTU21D;63746;45.402;37.922;2023-02-26T02:34:45;11.36;66.62
75164;HTU21D;63746;45.402;37.922;2023-02-26T02:40:07;11.34;65.62
75164;HTU21D;63746;45.402;37.922;2023-02-26T02:42:54;11.33;64.45
75164;HTU21D;63746;45.402;37.922;2023-02-26T02:45:49;11.33;66.83
75164;HTU21D;63746;45.402;37.922;2023-02-26T02:48:27;11.34;66.53
75164;HTU21D;63746;45.402;37.922;2023-02-26T02:50:55;11.34;67.12
75164;HTU21D;63746;45.402;37.922;2023-02-26T02:53:26;11.37;65.77
75164;HTU21D;63746;45.402;37.922;2023-02-26T02:56:11;11.37;65.66
75164;HTU21D;63746;45.402;37.922;2023-02-26T02:58:47;11.33;66.16
75164;HTU21D;63746;45.402;37.922;2023-02-26T03:01:18;11.33;66.10
75164;HTU21D;63746;45.402;37.922;2023-02-26T03:03:56;11.33;66.74
75164;HTU21D;63746;45.402;37.922;2023-02-26T03:06:23;11.34;66.07
75164;HTU21D;63746;45.402;37.922;2023-02-26T03:08:50;11.32;66.24
75164;HTU21D;63746;45.402;37.922;2023-02-26T03:11:17;11.32;67.39
75164;HTU21D;63746;45.402;37.922;2023-02-26T03:13:45;11.31;65.04
75164;HTU21D;63746;45.402;37.922;2023-02-26T03:19:20;11.34;65.22
75164;HTU21D;63746;45.402;37.922;2023-02-26T03:22:00;11.33;64.94
75164;HTU21D;63746;45.402;37.922;2023-02-26T03:32:30;11.38;67.63
75164;HTU21D;63746;45.402;37.922;2023-02-26T03:40:20;11.40;67.00
75164;HTU21D;63746;45.402;37.922;2023-02-26T03:42:53;11.43;66.30
75164;HTU21D;63746;45.402;37.922;2023-02-26T03:45:34;11.44;65.96
75164;HTU21D;63746;45.402;37.922;2023-02-26T03:48:04;11.44;65.74
75164;HTU21D;63746;45.402;37.922;2023-02-26T03:50:36;11.46;67.38
75164;HTU21D;63746;45.402;37.922;2023-02-26T03:53:24;11.48;66.97
75164;HTU21D;63746;45.402;37.922;2023-02-26T03:56:10;11.48;66.56
75164;HTU21D;63746;45.402;37.922;2023-02-26T03:59:08;11.47;66.81
75164;HTU21D;63746;45.402;37.922;2023-02-26T04:02:03;11.47;67.14
75164;HTU21D;63746;45.402;37.922;2023-02-26T04:07:12;11.47;66.82
75164;HTU21D;63746;45.402;37.922;2023-02-26T04:09:40;11.47;67.00
75164;HTU21D;63746;45.402;37.922;2023-02-26T04:12:07;11.48;67.59
75164;HTU21D;63746;45.402;37.922;2023-02-26T04:14:33;11.47;67.88
75164;HTU21D;63746;45.402;37.922;2023-02-26T04:16:59;11.46;67.46
75164;HTU21D;63746;45.402;37.922;2023-02-26T04:19:25;11.48;67.61
75164;HTU21D;63746;45.402;37.922;2023-02-26T04:21:52;11.48;67.12
75164;HTU21D;63746;45.402;37.922;2023-02-26T04:24:18;11.49;66.25
75164;HTU21D;63746;45.402;37.922;2023-02-26T04:26:44;11.51;67.68
75164;HTU21D;63746;45.402;37.922;2023-02-26T04:29:10;11.49;67.43
75164;HTU21D;63746;45.402;37.922;2023-02-26T04:31:37;11.48;67.04
75164;HTU21D;63746;45.402;37.922;2023-02-26T04:34:03;11.49;67.68
75164;HTU21D;63746;45.402;37.922;2023-02-26T04:36:29;11.47;67.81
75164;HTU21D;63746;45.402;37.922;2023-02-26T04:38:57;11.47;67.91
75164;HTU21D;63746;45.402;37.922;2023-02-26T04:41:23;11.44;67.97
75164;HTU21D;63746;45.402;37.922;2023-02-26T04:43:49;11.40;68.04
75164;HTU21D;63746;45.402;37.922;2023-02-26T04:46:23;11.37;67.94
75164;HTU21D;63746;45.402;37.922;2023-02-26T04:48:49;11.34;68.12
75164;HTU21D;63746;45.402;37.922;2023-02-26T04:51:15;11.32;68.05
75164;HTU21D;63746;45.402;37.922;2023-02-26T04:53:42;11.31;68.21
75164;HTU21D;63746;45.402;37.922;2023-02-26T04:56:08;11.27;68.27
75164;HTU21D;63746;45.402;37.922;2023-02-26T04:58:35;11.28;68.24
75164;HTU21D;63746;45.402;37.922;2023-02-26T05:01:06;11.26;68.33
75164;HTU21D;63746;45.402;37.922;2023-02-26T05:03:32;11.24;68.38
75164;HTU21D;63746;45.402;37.922;2023-02-26T05:05:58;11.24;68.49
75164;HTU21D;63746;45.402;37.922;2023-02-26T05:08:25;11.22;68.42
75164;HTU21D;63746;45.402;37.922;2023-02-26T05:10:51;11.23;68.66
75164;HTU21D;63746;45.402;37.922;2023-02-26T05:13:18;11.22;68.44
75164;HTU21D;63746;45.402;37.922;2023-02-26T05:15:44;11.20;68.43
75164;HTU21D;63746;45.402;37.922;2023-02-26T05:18:11;11.22;68.24
75164;HTU21D;63746;45.402;37.922;2023-02-26T05:20:37;11.20;68.48
75164;HTU21D;63746;45.402;37.922;2023-02-26T05:23:03;11.22;68.58
75164;HTU21D;63746;45.402;37.922;2023-02-26T05:25:29;11.23;68.40
75164;HTU21D;63746;45.402;37.922;2023-02-26T05:27:55;11.24;68.12
75164;HTU21D;63746;45.402;37.922;2023-02-26T05:30:22;11.26;67.66
75164;HTU21D;63746;45.402;37.922;2023-02-26T05:32:48;11.28;67.84
75164;HTU21D;63746;45.402;37.922;2023-02-26T05:35:14;11.31;68.28
75164;HTU21D;63746;45.402;37.922;2023-02-26T05:37:40;11.32;68.04
75164;HTU21D;63746;45.402;37.922;2023-02-26T05:40:08;11.36;67.65
75164;HTU21D;63746;45.402;37.922;2023-02-26T05:42:36;11.38;68.53
75164;HTU21D;63746;45.402;37.922;2023-02-26T05:45:03;11.41;68.48
75164;HTU21D;63746;45.402;37.922;2023-02-26T05:47:32;11.43;68.14
75164;HTU21D;63746;45.402;37.922;2023-02-26T05:49:58;11.48;68.23
75164;HTU21D;63746;45.402;37.922;2023-02-26T05:52:24;11.52;68.21
75164;HTU21D;63746;45.402;37.922;2023-02-26T05:54:50;11.55;68.37
75164;HTU21D;63746;45.402;37.922;2023-02-26T05:57:15;11.58;68.17
75164;HTU21D;63746;45.402;37.922;2023-02-26T05:59:41;11.63;68.46
75164;HTU21D;63746;45.402;37.922;2023-02-26T06:02:07;11.68;68.08
75164;HTU21D;63746;45.402;37.922;2023-02-26T06:04:34;11.71;68.21
75164;HTU21D;63746;45.402;37.922;2023-02-26T06:07:00;11.74;66.94
75164;HTU21D;63746;45.402;37.922;2023-02-26T06:09:26;11.79;67.81
75164;HTU21D;63746;45.402;37.922;2023-02-26T06:11:52;11.84;67.45
75164;HTU21D;63746;45.402;37.922;2023-02-26T06:14:18;11.88;67.31
75164;HTU21D;63746;45.402;37.922;2023-02-26T06:16:44;11.92;68.03
75164;HTU21D;63746;45.402;37.922;2023-02-26T06:19:10;11.98;68.12
75164;HTU21D;63746;45.402;37.922;2023-02-26T06:21:36;12.01;67.20
75164;HTU21D;63746;45.402;37.922;2023-02-26T06:24:02;12.06;67.66
75164;HTU21D;63746;45.402;37.922;2023-02-26T06:26:28;12.10;67.81
75164;HTU21D;63746;45.402;37.922;2023-02-26T06:28:53;12.14;67.89
75164;HTU21D;63746;45.402;37.922;2023-02-26T06:31:19;12.18;67.74
75164;HTU21D;63746;45.402;37.922;2023-02-26T06:33:45;12.22;67.73
75164;HTU21D;63746;45.402;37.922;2023-02-26T06:36:11;12.28;67.47
75164;HTU21D;63746;45.402;37.922;2023-02-26T06:38:37;12.32;67.27
75164;HTU21D;63746;45.402;37.922;2023-02-26T06:41:03;12.38;67.76
75164;HTU21D;63746;45.402;37.922;2023-02-26T06:43:29;12.43;66.32
75164;HTU21D;63746;45.402;37.922;2023-02-26T06:45:59;12.47;67.00
75164;HTU21D;63746;45.402;37.922;2023-02-26T06:48:25;12.51;67.27
75164;HTU21D;63746;45.402;37.922;2023-02-26T06:50:52;12.53;67.59
75164;HTU21D;63746;45.402;37.922;2023-02-26T06:53:18;12.60;67.74
75164;HTU21D;63746;45.402;37.922;2023-02-26T06:55:44;12.63;66.62
75164;HTU21D;63746;45.402;37.922;2023-02-26T06:58:11;12.70;66.60
75164;HTU21D;63746;45.402;37.922;2023-02-26T07:00:38;12.73;67.31
75164;HTU21D;63746;45.402;37.922;2023-02-26T07:03:06;12.75;67.59
75164;HTU21D;63746;45.402;37.922;2023-02-26T07:05:34;12.79;67.42
75164;HTU21D;63746;45.402;37.922;2023-02-26T07:08:00;12.84;67.10
75164;HTU21D;63746;45.402;37.922;2023-02-26T07:10:26;12.85;67.57
75164;HTU21D;63746;45.402;37.922;2023-02-26T07:12:52;12.90;67.41
75164;HTU21D;63746;45.402;37.922;2023-02-26T07:15:18;12.93;67.45
75164;HTU21D;63746;45.402;37.922;2023-02-26T07:17:44;12.96;67.25
75164;HTU21D;63746;45.402;37.922;2023-02-26T07:20:10;13.00;67.56
75164;HTU21D;63746;45.402;37.922;2023-02-26T07:22:37;13.03;67.07
75164;HTU21D;63746;45.402;37.922;2023-02-26T07:25:04;13.05;66.85
75164;HTU21D;63746;45.402;37.922;2023-02-26T07:27:30;13.09;67.09
75164;HTU21D;63746;45.402;37.922;2023-02-26T07:29:58;13.14;67.58
75164;HTU21D;63746;45.402;37.922;2023-02-26T07:32:25;13.19;66.69
75164;HTU21D;63746;45.402;37.922;2023-02-26T07:34:51;13.23;66.92
75164;HTU21D;63746;45.402;37.922;2023-02-26T07:37:17;13.30;67.09
75164;HTU21D;63746;45.402;37.922;2023-02-26T07:39:43;13.34;66.09
75164;HTU21D;63746;45.402;37.922;2023-02-26T07:42:10;13.40;67.68
75164;HTU21D;63746;45.402;37.922;2023-02-26T07:44:38;13.46;66.93
75164;HTU21D;63746;45.402;37.922;2023-02-26T07:47:04;13.49;65.21
75164;HTU21D;63746;45.402;37.922;2023-02-26T07:49:30;13.54;67.27
75164;HTU21D;63746;45.402;37.922;2023-02-26T07:51:57;13.59;66.96
75164;HTU21D;63746;45.402;37.922;2023-02-26T07:54:23;13.62;66.65
75164;HTU21D;63746;45.402;37.922;2023-02-26T07:56:49;13.67;65.66
75164;HTU21D;63746;45.402;37.922;2023-02-26T07:59:15;13.73;66.40
75164;HTU21D;63746;45.402;37.922;2023-02-26T08:01:41;13.75;67.01
75164;HTU21D;63746;45.402;37.922;2023-02-26T08:04:07;13.77;65.81
75164;HTU21D;63746;45.402;37.922;2023-02-26T08:06:33;13.80;65.90
75164;HTU21D;63746;45.402;37.922;2023-02-26T08:09:00;13.84;66.85
75164;HTU21D;63746;45.402;37.922;2023-02-26T08:11:26;13.86;65.33
75164;HTU21D;63746;45.402;37.922;2023-02-26T08:13:52;13.92;65.62
75164;HTU21D;63746;45.402;37.922;2023-02-26T08:16:19;13.94;65.01
75164;HTU21D;63746;45.402;37.922;2023-02-26T08:18:45;13.98;65.91
75164;HTU21D;63746;45.402;37.922;2023-02-26T08:21:11;14.03;66.15
75164;HTU21D;63746;45.402;37.922;2023-02-26T08:23:37;14.04;65.58
75164;HTU21D;63746;45.402;37.922;2023-02-26T08:26:08;14.09;64.83
75164;HTU21D;63746;45.402;37.922;2023-02-26T08:28:35;14.12;64.74
75164;HTU21D;63746;45.402;37.922;2023-02-26T08:31:02;14.15;65.09
75164;HTU21D;63746;45.402;37.922;2023-02-26T08:33:28;14.20;63.82
75164;HTU21D;63746;45.402;37.922;2023-02-26T08:35:54;14.24;66.38
75164;HTU21D;63746;45.402;37.922;2023-02-26T08:38:22;14.28;66.25
75164;HTU21D;63746;45.402;37.922;2023-02-26T08:40:48;14.30;65.95
75164;HTU21D;63746;45.402;37.922;2023-02-26T08:43:14;14.34;62.76
75164;HTU21D;63746;45.402;37.922;2023-02-26T08:45:40;14.38;65.75
75164;HTU21D;63746;45.402;37.922;2023-02-26T08:48:06;14.42;65.74
75164;HTU21D;63746;45.402;37.922;2023-02-26T08:50:32;14.48;66.10
75164;HTU21D;63746;45.402;37.922;2023-02-26T08:52:58;14.52;66.52
75164;HTU21D;63746;45.402;37.922;2023-02-26T08:55:24;14.55;65.78
75164;HTU21D;63746;45.402;37.922;2023-02-26T08:57:50;14.60;64.38
75164;HTU21D;63746;45.402;37.922;2023-02-26T09:00:16;14.64;64.56
75164;HTU21D;63746;45.402;37.922;2023-02-26T09:02:44;14.68;66.01
75164;HTU21D;63746;45.402;37.922;2023-02-26T09:05:10;14.73;65.91
75164;HTU21D;63746;45.402;37.922;2023-02-26T09:07:40;14.77;66.11
75164;HTU21D;63746;45.402;37.922;2023-02-26T09:10:07;14.80;65.95
75164;HTU21D;63746;45.402;37.922;2023-02-26T09:12:33;14.83;66.26
75164;HTU21D;63746;45.402;37.922;2023-02-26T09:15:07;14.86;65.62
75164;HTU21D;63746;45.402;37.922;2023-02-26T09:17:33;14.89;65.35
75164;HTU21D;63746;45.402;37.922;2023-02-26T09:19:59;14.93;66.15
75164;HTU21D;63746;45.402;37.922;2023-02-26T09:22:25;14.95;66.28
75164;HTU21D;63746;45.402;37.922;2023-02-26T09:24:51;14.96;65.50
75164;HTU21D;63746;45.402;37.922;2023-02-26T09:27:17;14.99;63.42
75164;HTU21D;63746;45.402;37.922;2023-02-26T09:29:43;15.00;65.34
75164;HTU21D;63746;45.402;37.922;2023-02-26T09:32:09;15.01;65.47
75164;HTU21D;63746;45.402;37.922;2023-02-26T09:34:36;15.06;66.30
75164;HTU21D;63746;45.402;37.922;2023-02-26T09:37:03;15.08;65.53
75164;HTU21D;63746;45.402;37.922;2023-02-26T09:39:29;15.10;62.71
75164;HTU21D;63746;45.402;37.922;2023-02-26T09:41:59;15.13;65.27
75164;HTU21D;63746;45.402;37.922;2023-02-26T09:44:37;15.15;64.28
75164;HTU21D;63746;45.402;37.922;2023-02-26T09:49:55;15.22;58.03
75164;HTU21D;63746;45.402;37.922;2023-02-26T09:52:23;15.24;62.37
75164;HTU21D;63746;45.402;37.922;2023-02-26T09:54:54;15.26;64.60
75164;HTU21D;63746;45.402;37.922;2023-02-26T09:57:38;15.30;64.23
75164;HTU21D;63746;45.402;37.922;2023-02-26T10:08:04;15.48;64.47
75164;HTU21D;63746;45.402;37.922;2023-02-26T10:10:58;15.55;59.66
75164;HTU21D;63746;45.402;37.922;2023-02-26T10:16:14;15.60;65.17
75164;HTU21D;63746;45.402;37.922;2023-02-26T10:18:47;15.66;65.10
75164;HTU21D;63746;45.402;37.922;2023-02-26T10:21:20;15.70;64.93
75164;HTU21D;63746;45.402;37.922;2023-02-26T10:23:54;15.72;64.84
75164;HTU21D;63746;45.402;37.922;2023-02-26T10:26:24;15.74;65.07
75164;HTU21D;63746;45.402;37.922;2023-02-26T10:29:27;15.76;63.34
75164;HTU21D;63746;45.402;37.922;2023-02-26T10:32:32;15.80;62.34
75164;HTU21D;63746;45.402;37.922;2023-02-26T10:35:05;15.82;61.50
75164;HTU21D;63746;45.402;37.922;2023-02-26T10:37:55;15.84;62.72
75164;HTU21D;63746;45.402;37.922;2023-02-26T10:40:42;15.88;61.72
75164;HTU21D;63746;45.402;37.922;2023-02-26T10:48:53;15.91;63.05
75164;HTU21D;63746;45.402;37.922;2023-02-26T10:50:56;15.93;62.82
75164;HTU21D;63746;45.402;37.922;2023-02-26T10:53:23;15.98;64.48
75164;HTU21D;63746;45.402;37.922;2023-02-26T10:56:24;16.04;57.78
75164;HTU21D;63746;45.402;37.922;2023-02-26T10:58:51;16.10;63.44
75164;HTU21D;63746;45.402;37.922;2023-02-26T11:01:20;16.12;64.15
75164;HTU21D;63746;45.402;37.922;2023-02-26T11:03:58;16.18;64.84
75164;HTU21D;63746;45.402;37.922;2023-02-26T11:06:37;16.24;62.05
75164;HTU21D;63746;45.402;37.922;2023-02-26T11:09:21;16.29;61.84
75164;HTU21D;63746;45.402;37.922;2023-02-26T11:12:05;16.33;58.96
75164;HTU21D;63746;45.402;37.922;2023-02-26T11:14:32;16.34;64.20
75164;HTU21D;63746;45.402;37.922;2023-02-26T11:17:19;16.34;60.86
75164;HTU21D;63746;45.402;37.922;2023-02-26T11:19:56;16.34;61.83
75164;HTU21D;63746;45.402;37.922;2023-02-26T11:22:28;16.34;62.10
75164;HTU21D;63746;45.402;37.922;2023-02-26T11:24:57;16.33;63.53
75164;HTU21D;63746;45.402;37.922;2023-02-26T11:27:31;16.32;64.41
75164;HTU21D;63746;45.402;37.922;2023-02-26T11:30:04;16.29;63.54
75164;HTU21D;63746;45.402;37.922;2023-02-26T11:32:35;16.26;64.73
75164;HTU21D;63746;45.402;37.922;2023-02-26T11:35:06;16.21;61.85
75164;HTU21D;63746;45.402;37.922;2023-02-26T11:37:38;16.18;63.18
75164;HTU21D;63746;45.402;37.922;2023-02-26T11:42:52;16.16;63.03
75164;HTU21D;63746;45.402;37.922;2023-02-26T11:45:20;16.16;62.66
75164;HTU21D;63746;45.402;37.922;2023-02-26T11:47:57;16.16;62.83
75164;HTU21D;63746;45.402;37.922;2023-02-26T11:50:24;16.16;65.12
75164;HTU21D;63746;45.402;37.922;2023-02-26T11:52:56;16.13;63.52
75164;HTU21D;63746;45.402;37.922;2023-02-26T11:55:32;16.10;64.19
75164;HTU21D;63746;45.402;37.922;2023-02-26T11:57:58;16.05;63.31
75164;HTU21D;63746;45.402;37.922;2023-02-26T12:02:59;15.96;64.72
75164;HTU21D;63746;45.402;37.922;2023-02-26T12:05:25;15.91;64.28
75164;HTU21D;63746;45.402;37.922;2023-02-26T12:07:51;15.87;64.90
75164;HTU21D;63746;45.402;37.922;2023-02-26T12:10:24;15.83;64.63
75164;HTU21D;63746;45.402;37.922;2023-02-26T12:13:10;15.80;61.99
75164;HTU21D;63746;45.402;37.922;2023-02-26T12:16:19;15.73;60.77
75164;HTU21D;63746;45.402;37.922;2023-02-26T12:21:56;15.67;61.96
75164;HTU21D;63746;45.402;37.922;2023-02-26T12:28:19;15.61;62.28
75164;HTU21D;63746;45.402;37.922;2023-02-26T12:30:58;15.57;63.73
75164;HTU21D;63746;45.402;37.922;2023-02-26T12:41:36;15.55;59.32
75164;HTU21D;63746;45.402;37.922;2023-02-26T12:44:22;15.55;63.55
75164;HTU21D;63746;45.402;37.922;2023-02-26T12:47:19;15.55;58.41
75164;HTU21D;63746;45.402;37.922;2023-02-26T12:55:42;15.51;59.85
75164;HTU21D;63746;45.402;37.922;2023-02-26T12:58:24;15.47;64.39
75164;HTU21D;63746;45.402;37.922;2023-02-26T13:10:00;15.36;63.92
75164;HTU21D;63746;45.402;37.922;2023-02-26T13:12:45;15.30;63.37
75164;HTU21D;63746;45.402;37.922;2023-02-26T13:15:21;15.27;65.48
75164;HTU21D;63746;45.402;37.922;2023-02-26T13:18:08;15.24;64.36
75164;HTU21D;63746;45.402;37.922;2023-02-26T13:20:39;15.22;65.52
75164;HTU21D;63746;45.402;37.922;2023-02-26T13:23:15;15.17;62.88
75164;HTU21D;63746;45.402;37.922;2023-02-26T13:30:56;15.04;64.39
75164;HTU21D;63746;45.402;37.922;2023-02-26T13:33:27;15.02;64.76
75164;HTU21D;63746;45.402;37.922;2023-02-26T13:35:55;15.01;64.16
75164;HTU21D;63746;45.402;37.922;2023-02-26T13:43:51;14.96;61.42
75164;HTU21D;63746;45.402;37.922;2023-02-26T13:46:29;14.94;63.31
75164;HTU21D;63746;45.402;37.922;2023-02-26T13:51:53;14.93;63.08
75164;HTU21D;63746;45.402;37.922;2023-02-26T14:14:39;14.88;60.02
75164;HTU21D;63746;45.402;37.922;2023-02-26T14:19:42;14.85;63.05
75164;HTU21D;63746;45.402;37.922;2023-02-26T14:27:32;14.75;63.32
75164;HTU21D;63746;45.402;37.922;2023-02-26T14:32:51;14.65;59.35
75164;HTU21D;63746;45.402;37.922;2023-02-26T14:35:21;14.60;65.09
75164;HTU21D;63746;45.402;37.922;2023-02-26T14:38:25;14.53;61.39
75164;HTU21D;63746;45.402;37.922;2023-02-26T14:43:43;14.39;61.84
75164;HTU21D;63746;45.402;37.922;2023-02-26T14:46:11;14.34;65.56
75164;HTU21D;63746;45.402;37.922;2023-02-26T14:48:38;14.27;65.20
75164;HTU21D;63746;45.402;37.922;2023-02-26T15:00:02;13.95;64.34
75164;HTU21D;63746;45.402;37.922;2023-02-26T15:05:43;13.82;65.13
75164;HTU21D;63746;45.402;37.922;2023-02-26T15:19:13;13.45;64.72
75164;HTU21D;63746;45.402;37.922;2023-02-26T15:22:00;13.38;66.10
75164;HTU21D;63746;45.402;37.922;2023-02-26T15:24:29;13.32;66.32
75164;HTU21D;63746;45.402;37.922;2023-02-26T15:27:04;13.26;65.82
75164;HTU21D;63746;45.402;37.922;2023-02-26T15:29:40;13.22;64.66
75164;HTU21D;63746;45.402;37.922;2023-02-26T15:32:30;13.19;65.27
75164;HTU21D;63746;45.402;37.922;2023-02-26T15:35:15;13.14;65.95
75164;HTU21D;63746;45.402;37.922;2023-02-26T15:37:42;13.11;66.74
75164;HTU21D;63746;45.402;37.922;2023-02-26T15:40:13;13.07;66.88
75164;HTU21D;63746;45.402;37.922;2023-02-26T15:42:40;13.05;66.88
75164;HTU21D;63746;45.402;37.922;2023-02-26T15:45:31;13.02;66.53
75164;HTU21D;63746;45.402;37.922;2023-02-26T15:51:00;12.90;66.83
75164;HTU21D;63746;45.402;37.922;2023-02-26T15:53:37;12.88;65.72
75164;HTU21D;63746;45.402;37.922;2023-02-26T15:56:17;12.79;66.71
75164;HTU21D;63746;45.402;37.922;2023-02-26T15:58:52;12.74;67.01
75164;HTU21D;63746;45.402;37.922;2023-02-26T16:01:24;12.71;66.92
75164;HTU21D;63746;45.402;37.922;2023-02-26T16:03:52;12.66;66.97
75164;HTU21D;63746;45.402;37.922;2023-02-26T16:06:24;12.63;66.82
75164;HTU21D;63746;45.402;37.922;2023-02-26T16:08:52;12.62;67.01
75164;HTU21D;63746;45.402;37.922;2023-02-26T16:11:18;12.61;66.62
75164;HTU21D;63746;45.402;37.922;2023-02-26T16:13:48;12.62;66.83
75164;HTU21D;63746;45.402;37.922;2023-02-26T16:16:24;12.62;66.20
75164;HTU21D;63746;45.402;37.922;2023-02-26T16:18:53;12.65;65.63
75164;HTU21D;63746;45.402;37.922;2023-02-26T16:21:34;12.67;66.12
75164;HTU21D;63746;45.402;37.922;2023-02-26T16:24:04;12.70;66.86
75164;HTU21D;63746;45.402;37.922;2023-02-26T16:26:33;12.71;67.00
75164;HTU21D;63746;45.402;37.922;2023-02-26T16:29:12;12.71;66.55
75164;HTU21D;63746;45.402;37.922;2023-02-26T16:31:40;12.70;67.04
75164;HTU21D;63746;45.402;37.922;2023-02-26T16:36:53;12.66;67.14
75164;HTU21D;63746;45.402;37.922;2023-02-26T16:39:28;12.65;66.92
75164;HTU21D;63746;45.402;37.922;2023-02-26T16:47:01;12.63;67.13
75164;HTU21D;63746;45.402;37.922;2023-02-26T16:49:32;12.61;67.20
75164;HTU21D;63746;45.402;37.922;2023-02-26T16:51:59;12.60;67.29
75164;HTU21D;63746;45.402;37.922;2023-02-26T16:54:33;12.58;67.18
75164;HTU21D;63746;45.402;37.922;2023-02-26T16:57:44;12.57;66.92
75164;HTU21D;63746;45.402;37.922;2023-02-26T17:00:24;12.53;66.70
75164;HTU21D;63746;45.402;37.922;2023-02-26T17:05:41;12.51;67.24
75164;HTU21D;63746;45.402;37.922;2023-02-26T17:08:19;12.49;67.20
75164;HTU21D;63746;45.402;37.922;2023-02-26T17:10:49;12.47;67.14
75164;HTU21D;63746;45.402;37.922;2023-02-26T17:13:25;12.45;66.36
75164;HTU21D;63746;45.402;37.922;2023-02-26T17:15:52;12.43;67.13
75164;HTU21D;63746;45.402;37.922;2023-02-26T17:18:22;12.40;66.67
75164;HTU21D;63746;45.402;37.922;2023-02-26T17:20:48;12.40;66.99
75164;HTU21D;63746;45.402;37.922;2023-02-26T17:23:15;12.41;67.32
75164;HTU21D;63746;45.402;37.922;2023-02-26T17:25:44;12.41;67.27
75164;HTU21D;63746;45.402;37.922;2023-02-26T17:28:18;12.41;67.14
75164;HTU21D;63746;45.402;37.922;2023-02-26T17:30:46;12.41;67.12
75164;HTU21D;63746;45.402;37.922;2023-02-26T17:33:12;12.42;67.23
75164;HTU21D;63746;45.402;37.922;2023-02-26T17:35:39;12.42;67.31
75164;HTU21D;63746;45.402;37.922;2023-02-26T17:38:09;12.42;67.27
75164;HTU21D;63746;45.402;37.922;2023-02-26T17:40:38;12.44;67.33
75164;HTU21D;63746;45.402;37.922;2023-02-26T17:43:06;12.43;67.20
75164;HTU21D;63746;45.402;37.922;2023-02-26T17:45:35;12.42;67.46
75164;HTU21D;63746;45.402;37.922;2023-02-26T17:48:01;12.43;67.46
75164;HTU21D;63746;45.402;37.922;2023-02-26T17:50:47;12.45;67.31
75164;HTU21D;63746;45.402;37.922;2023-02-26T17:53:17;12.46;67.15
75164;HTU21D;63746;45.402;37.922;2023-02-26T17:55:49;12.47;66.86
75164;HTU21D;63746;45.402;37.922;2023-02-26T17:58:20;12.45;66.84
75164;HTU21D;63746;45.402;37.922;2023-02-26T18:00:47;12.46;66.52
75164;HTU21D;63746;45.402;37.922;2023-02-26T18:03:18;12.47;66.73
75164;HTU21D;63746;45.402;37.922;2023-02-26T18:05:45;12.47;66.81
75164;HTU21D;63746;45.402;37.922;2023-02-26T18:08:20;12.46;65.52
75164;HTU21D;63746;45.402;37.922;2023-02-26T18:10:46;12.50;66.63
75164;HTU21D;63746;45.402;37.922;2023-02-26T18:13:12;12.50;66.31
75164;HTU21D;63746;45.402;37.922;2023-02-26T18:15:38;12.50;65.97
75164;HTU21D;63746;45.402;37.922;2023-02-26T18:18:04;12.49;66.72
75164;HTU21D;63746;45.402;37.922;2023-02-26T18:20:31;12.49;66.11
75164;HTU21D;63746;45.402;37.922;2023-02-26T18:22:57;12.50;65.78
75164;HTU21D;63746;45.402;37.922;2023-02-26T18:25:23;12.51;66.37
75164;HTU21D;63746;45.402;37.922;2023-02-26T18:27:52;12.49;66.85
75164;HTU21D;63746;45.402;37.922;2023-02-26T18:30:22;12.49;66.59
75164;HTU21D;63746;45.402;37.922;2023-02-26T18:32:49;12.49;66.14
75164;HTU21D;63746;45.402;37.922;2023-02-26T18:35:15;12.47;66.59